createdAt,value
2022-11-28T00:00:33.138Z,77.30
2022-11-28T00:03:18.660Z,77.65
2022-11-28T00:06:05.725Z,78.01
2022-11-28T00:08:51.451Z,78.15
2022-11-28T00:11:39.562Z,78.21
2022-11-28T00:14:25.219Z,78.95
2022-11-28T00:17:10.862Z,79.14
2022-11-28T00:19:56.608Z,78.83
2022-11-28T00:22:42.296Z,78.93
2022-11-28T00:25:27.844Z,78.63
2022-11-28T00:28:13.365Z,79.03
2022-11-28T00:30:58.963Z,78.85
2022-11-28T00:33:44.366Z,79.04
2022-11-28T00:36:30.520Z,78.91
2022-11-28T00:39:17.385Z,79.13
2022-11-28T00:42:03.096Z,79.23
2022-11-28T00:44:49.164Z,79.35
2022-11-28T00:47:34.738Z,79.47
2022-11-28T00:50:20.386Z,79.55
2022-11-28T00:53:05.737Z,79.05
2022-11-28T00:55:51.546Z,79.76
2022-11-28T00:58:37.794Z,79.24
2022-11-28T01:01:23.606Z,79.93
2022-11-28T01:04:11.589Z,79.38
2022-11-28T01:06:57.804Z,79.74
2022-11-28T01:09:43.311Z,79.75
2022-11-28T01:12:28.758Z,79.46
2022-11-28T01:15:14.133Z,79.31
2022-11-28T01:17:59.871Z,79.13
2022-11-28T01:20:45.364Z,79.28
2022-11-28T01:23:30.718Z,78.79
2022-11-28T01:26:22.979Z,78.97
2022-11-28T01:29:09.676Z,78.88
2022-11-28T01:31:54.915Z,79.12
2022-11-28T01:34:40.558Z,78.92
2022-11-28T01:37:26.116Z,78.88
2022-11-28T01:40:12.343Z,78.79
2022-11-28T01:42:57.977Z,78.36
2022-11-28T01:45:43.552Z,78.20
2022-11-28T01:48:41.728Z,78.02
2022-11-28T01:51:27.923Z,77.96
2022-11-28T01:54:15.116Z,78.61
2022-11-28T01:57:04.500Z,78.65
2022-11-28T02:00:02.678Z,78.60
2022-11-28T02:03:06.722Z,78.83
2022-11-28T02:05:53.159Z,78.84
2022-11-28T02:08:38.760Z,78.55
2022-11-28T02:11:59.283Z,79.03
2022-11-28T02:15:00.120Z,78.82
2022-11-28T02:18:02.976Z,78.41
2022-11-28T02:21:03.204Z,78.63
2022-11-28T02:24:01.825Z,78.34
2022-11-28T02:27:12.266Z,78.35
2022-11-28T02:30:16.258Z,78.44
2022-11-28T02:33:28.132Z,78.70
2022-11-28T02:36:20.952Z,78.38
2022-11-28T02:39:29.663Z,77.99
2022-11-28T02:42:20.245Z,78.11
2022-11-28T02:45:29.013Z,77.77
2022-11-28T02:48:22.812Z,78.13
2022-11-28T02:51:24.421Z,77.83
2022-11-28T02:54:12.971Z,78.02
2022-11-28T02:56:58.915Z,77.47
2022-11-28T02:59:50.297Z,77.93
2022-11-28T03:02:36.145Z,77.45
2022-11-28T03:05:28.408Z,77.48
2022-11-28T03:08:32.531Z,77.56
2022-11-28T03:11:55.940Z,77.40
2022-11-28T03:14:58.567Z,77.43
2022-11-28T03:18:11.631Z,76.84
2022-11-28T03:21:02.175Z,77.36
2022-11-28T03:24:18.704Z,77.00
2022-11-28T03:27:16.263Z,76.75
2022-11-28T03:30:11.715Z,77.09
2022-11-28T03:33:00.785Z,77.04
2022-11-28T03:35:50.582Z,77.24
2022-11-28T03:38:44.419Z,77.09
2022-11-28T03:41:35.702Z,77.01
2022-11-28T03:44:30.738Z,76.85
2022-11-28T03:47:16.474Z,77.07
2022-11-28T03:50:08.526Z,77.01
2022-11-28T03:53:01.557Z,77.05
2022-11-28T03:55:55.187Z,76.98
2022-11-28T03:58:49.813Z,77.20
2022-11-28T04:01:53.487Z,76.66
2022-11-28T04:04:53.817Z,77.03
2022-11-28T04:08:25.972Z,77.02
2022-11-28T04:11:39.549Z,77.73
2022-11-28T04:14:46.137Z,77.42
2022-11-28T04:17:37.967Z,77.53
2022-11-28T04:20:32.927Z,77.50
2022-11-28T04:23:21.396Z,77.98
2022-11-28T04:26:13.654Z,77.70
2022-11-28T04:29:00.341Z,77.12
2022-11-28T04:31:48.333Z,77.73
2022-11-28T04:34:36.304Z,77.05
2022-11-28T04:37:24.539Z,77.22
2022-11-28T04:40:11.909Z,77.30
2022-11-28T04:43:10.724Z,77.26
2022-11-28T04:46:04.124Z,77.46
2022-11-28T04:48:49.580Z,77.00
2022-11-28T04:52:05.910Z,77.20
2022-11-28T04:54:54.586Z,76.97
2022-11-28T04:57:44.926Z,76.98
2022-11-28T05:00:34.524Z,76.38
2022-11-28T05:03:20.941Z,76.37
2022-11-28T05:06:08.703Z,76.95
2022-11-28T05:08:54.149Z,76.76
2022-11-28T05:11:39.949Z,77.11
2022-11-28T05:14:25.978Z,76.92
2022-11-28T05:17:13.409Z,76.45
2022-11-28T05:19:59.581Z,76.81
2022-11-28T05:22:45.425Z,76.69
2022-11-28T05:25:30.801Z,76.54
2022-11-28T05:28:16.197Z,76.21
2022-11-28T05:31:02.731Z,76.56
2022-11-28T05:33:48.364Z,76.22
2022-11-28T05:36:33.759Z,76.27
2022-11-28T05:39:19.303Z,76.54
2022-11-28T05:42:05.878Z,76.40
2022-11-28T05:44:51.825Z,76.47
2022-11-28T05:47:37.372Z,76.26
2022-11-28T05:50:22.727Z,76.28
2022-11-28T05:53:09.193Z,76.23
2022-11-28T05:55:54.634Z,76.29
2022-11-28T05:58:40.499Z,76.22
2022-11-28T06:01:29.832Z,76.22
2022-11-28T06:04:15.569Z,76.06
2022-11-28T06:07:01.307Z,76.23
2022-11-28T06:09:46.489Z,76.16
2022-11-28T06:12:31.902Z,76.47
2022-11-28T06:15:17.337Z,76.00
2022-11-28T06:18:02.733Z,76.22
2022-11-28T06:20:48.027Z,76.11
2022-11-28T06:23:34.008Z,76.10
2022-11-28T06:26:22.650Z,75.89
2022-11-28T06:29:08.570Z,76.11
2022-11-28T06:31:54.069Z,76.13
2022-11-28T06:34:39.377Z,76.12
2022-11-28T06:37:24.865Z,75.82
2022-11-28T06:40:10.382Z,75.82
2022-11-28T06:42:55.970Z,75.87
2022-11-28T06:45:41.290Z,75.84
2022-11-28T06:48:27.209Z,75.63
2022-11-28T06:51:13.658Z,75.80
2022-11-28T06:53:58.765Z,75.74
2022-11-28T06:56:44.238Z,75.72
2022-11-28T06:59:29.579Z,75.55
2022-11-28T07:02:15.168Z,75.28
2022-11-28T07:05:00.705Z,75.74
2022-11-28T07:07:54.301Z,75.69
2022-11-28T07:10:40.029Z,75.49
2022-11-28T07:13:25.570Z,75.50
2022-11-28T07:16:15.672Z,75.64
2022-11-28T07:19:01.404Z,75.88
2022-11-28T07:21:47.055Z,76.08
2022-11-28T07:24:32.870Z,76.06
2022-11-28T07:27:18.921Z,76.20
2022-11-28T07:30:05.277Z,75.87
2022-11-28T07:32:50.667Z,76.37
2022-11-28T07:35:36.011Z,76.09
2022-11-28T07:38:21.528Z,76.30
2022-11-28T07:41:09.666Z,76.45
2022-11-28T07:44:00.468Z,76.02
2022-11-28T07:46:47.194Z,76.31
2022-11-28T07:49:33.356Z,76.47
2022-11-28T07:52:19.018Z,76.53
2022-11-28T07:55:05.456Z,76.39
2022-11-28T07:57:51.063Z,76.80
2022-11-28T08:00:36.373Z,76.08
2022-11-28T08:03:21.996Z,75.63
2022-11-28T08:06:08.309Z,76.02
2022-11-28T08:08:55.183Z,75.78
2022-11-28T08:11:41.288Z,75.50
2022-11-28T08:14:26.696Z,75.44
2022-11-28T08:17:12.451Z,76.28
2022-11-28T08:19:58.004Z,76.51
2022-11-28T08:22:44.038Z,76.19
2022-11-28T08:25:29.558Z,76.14
2022-11-28T08:28:15.057Z,75.48
2022-11-28T08:31:09.363Z,75.58
2022-11-28T08:33:56.925Z,75.80
2022-11-28T08:36:43.518Z,76.17
2022-11-28T08:39:29.087Z,75.51
2022-11-28T08:42:14.596Z,75.40
2022-11-28T08:45:00.044Z,75.20
2022-11-28T08:47:45.554Z,75.36
2022-11-28T08:50:31.073Z,75.50
2022-11-28T08:53:18.474Z,75.31
2022-11-28T08:56:04.591Z,75.50
2022-11-28T09:00:12.482Z,75.52
2022-11-28T09:03:23.349Z,75.52
2022-11-28T09:06:13.851Z,75.67
2022-11-28T09:09:04.619Z,75.87
2022-11-28T09:11:50.031Z,75.83
2022-11-28T09:14:35.549Z,75.76
2022-11-28T09:17:21.097Z,75.80
2022-11-28T09:20:07.681Z,76.71
2022-11-28T09:22:52.874Z,76.42
2022-11-28T09:25:39.525Z,76.95
2022-11-28T09:28:28.760Z,76.67
2022-11-28T09:31:16.373Z,76.70
2022-11-28T09:34:04.086Z,77.00
2022-11-28T09:36:50.168Z,77.11
2022-11-28T09:39:50.308Z,80.16
2022-11-28T09:42:44.527Z,80.78
2022-11-28T09:45:33.180Z,78.77
2022-11-28T09:48:28.256Z,77.61
2022-11-28T09:51:34.633Z,77.29
2022-11-28T09:54:29.191Z,76.89
2022-11-28T09:57:48.592Z,77.14
2022-11-28T10:00:42.390Z,77.07
2022-11-28T10:03:58.626Z,76.67
2022-11-28T10:06:53.072Z,76.75
2022-11-28T10:10:03.413Z,76.92
2022-11-28T10:13:10.460Z,76.96
2022-11-28T10:16:05.179Z,77.34
2022-11-28T10:18:56.391Z,77.57
2022-11-28T10:21:47.850Z,77.64
2022-11-28T10:24:50.223Z,77.47
2022-11-28T10:27:36.422Z,77.53
2022-11-28T10:30:23.480Z,77.23
2022-11-28T10:33:19.514Z,76.78
2022-11-28T10:36:06.337Z,76.78
2022-11-28T10:38:52.037Z,76.71
2022-11-28T10:41:43.869Z,77.12
2022-11-28T10:44:39.721Z,77.37
2022-11-28T10:47:28.747Z,77.00
2022-11-28T10:50:43.696Z,76.96
2022-11-28T10:53:35.637Z,77.90
2022-11-28T10:56:48.616Z,77.34
2022-11-28T11:00:30.897Z,77.11
2022-11-28T11:03:30.627Z,76.61
2022-11-28T11:06:19.150Z,76.53
2022-11-28T11:09:04.932Z,76.46
2022-11-28T11:11:58.301Z,76.31
2022-11-28T11:14:44.832Z,75.95
2022-11-28T11:17:37.830Z,75.72
2022-11-28T11:20:23.299Z,75.53
2022-11-28T11:23:23.010Z,75.70
2022-11-28T11:26:33.411Z,76.03
2022-11-28T11:29:30.541Z,76.28
2022-11-28T11:32:23.850Z,77.02
2022-11-28T11:35:17.845Z,76.65
2022-11-28T11:38:22.006Z,76.67
2022-11-28T11:41:29.051Z,76.59
2022-11-28T11:44:15.009Z,76.58
2022-11-28T11:47:06.130Z,76.90
2022-11-28T11:50:03.954Z,76.53
2022-11-28T11:53:13.903Z,76.19
2022-11-28T11:56:03.156Z,76.59
2022-11-28T11:58:53.358Z,76.65
2022-11-28T12:01:40.507Z,76.48
2022-11-28T12:04:52.513Z,76.46
2022-11-28T12:07:52.937Z,75.98
2022-11-28T12:11:16.765Z,75.63
2022-11-28T12:14:17.784Z,75.68
2022-11-28T12:17:48.443Z,74.34
2022-11-28T12:20:44.243Z,74.37
2022-11-28T12:23:40.580Z,73.95
2022-11-28T12:26:51.723Z,73.19
2022-11-28T12:30:02.145Z,73.63
2022-11-28T12:33:12.836Z,73.82
2022-11-28T12:36:13.089Z,73.26
2022-11-28T12:39:01.237Z,75.57
2022-11-28T12:42:15.429Z,75.04
2022-11-28T12:45:33.185Z,74.37
2022-11-28T12:48:34.202Z,74.05
2022-11-28T12:51:51.405Z,74.51
2022-11-28T12:54:50.527Z,74.26
2022-11-28T12:57:53.497Z,74.61
2022-11-28T13:01:06.771Z,74.41
2022-11-28T13:04:21.123Z,74.20
2022-11-28T13:07:37.066Z,74.15
2022-11-28T13:10:39.346Z,74.19
2022-11-28T13:13:34.863Z,74.13
2022-11-28T13:16:50.536Z,74.12
2022-11-28T13:19:55.080Z,74.22
2022-11-28T13:23:02.094Z,74.19
2022-11-28T13:25:54.597Z,74.06
2022-11-28T13:29:01.659Z,73.90
2022-11-28T13:32:29.174Z,73.98
2022-11-28T13:35:17.694Z,74.53
2022-11-28T13:45:03.164Z,74.23
2022-11-28T13:47:48.728Z,74.83
2022-11-28T13:50:37.138Z,74.98
2022-11-28T13:53:24.957Z,75.23
2022-11-28T13:56:11.074Z,75.10
2022-11-28T13:59:01.190Z,75.52
2022-11-28T14:02:00.382Z,75.62
2022-11-28T14:04:48.199Z,75.57
2022-11-28T14:07:35.047Z,75.65
2022-11-28T14:10:39.747Z,75.66
2022-11-28T14:13:32.670Z,75.68
2022-11-28T14:16:40.054Z,75.71
2022-11-28T14:19:46.745Z,75.70
2022-11-28T14:22:48.098Z,75.73
2022-11-28T14:25:41.231Z,75.94
2022-11-28T14:28:36.908Z,75.74
2022-11-28T14:31:31.918Z,76.01
2022-11-28T14:34:38.699Z,76.23
2022-11-28T14:37:30.049Z,75.94
2022-11-28T14:40:53.020Z,76.50
2022-11-28T14:43:40.348Z,76.58
2022-11-28T14:46:32.809Z,76.49
2022-11-28T14:49:20.722Z,76.71
2022-11-28T14:52:37.851Z,76.88
2022-11-28T14:55:25.994Z,76.91
2022-11-28T14:58:24.514Z,77.05
2022-11-28T15:01:19.223Z,77.07
2022-11-28T15:04:15.102Z,76.94
2022-11-28T15:07:03.291Z,78.37
2022-11-28T15:10:04.072Z,77.31
2022-11-28T15:13:18.159Z,77.02
2022-11-28T15:16:10.276Z,77.52
2022-11-28T15:18:59.676Z,77.52
2022-11-28T15:21:48.765Z,77.54
2022-11-28T15:24:38.458Z,77.46
2022-11-28T15:27:26.796Z,77.67
2022-11-28T15:30:26.643Z,77.69
2022-11-28T15:33:14.170Z,77.76
2022-11-28T15:36:10.841Z,77.75
2022-11-28T15:38:57.580Z,77.75
2022-11-28T15:46:34.376Z,77.85
2022-11-28T15:49:31.765Z,78.06
2022-11-28T15:52:21.400Z,77.93
2022-11-28T15:55:16.458Z,78.12
2022-11-28T15:58:31.091Z,77.78
2022-11-28T16:01:27.490Z,77.68
2022-11-28T16:04:17.122Z,77.80
2022-11-28T16:07:03.719Z,77.75
2022-11-28T16:09:56.550Z,77.93
2022-11-28T16:12:42.126Z,77.79
2022-11-28T16:15:29.585Z,78.05
2022-11-28T16:18:15.913Z,77.91
2022-11-28T16:21:02.189Z,78.02
2022-11-28T16:23:47.689Z,77.79
2022-11-28T16:26:35.504Z,77.81
2022-11-28T16:29:24.654Z,77.84
2022-11-28T16:32:32.736Z,78.01
2022-11-28T16:35:40.553Z,77.94
2022-11-28T16:38:26.212Z,77.67
2022-11-28T16:41:18.005Z,77.90
2022-11-28T16:44:15.804Z,77.64
2022-11-28T16:47:02.015Z,77.62
2022-11-28T16:50:14.199Z,77.49
2022-11-28T16:53:02.762Z,77.28
2022-11-28T16:55:48.650Z,77.72
2022-11-28T16:58:34.151Z,77.42
2022-11-28T17:01:21.723Z,77.42
2022-11-28T17:04:22.568Z,77.72
2022-11-28T17:07:14.069Z,78.04
2022-11-28T17:10:01.172Z,78.29
2022-11-28T17:12:47.242Z,77.92
2022-11-28T17:15:32.579Z,78.35
2022-11-28T17:18:18.080Z,77.61
2022-11-28T17:21:03.452Z,77.90
2022-11-28T17:23:49.504Z,77.66
2022-11-28T17:26:35.187Z,77.77
2022-11-28T17:29:21.959Z,77.94
2022-11-28T17:32:11.974Z,77.81
2022-11-28T17:34:57.285Z,78.50
2022-11-28T17:37:42.837Z,77.88
2022-11-28T17:40:34.504Z,78.21
2022-11-28T17:43:21.809Z,78.18
2022-11-28T17:46:07.219Z,78.10
2022-11-28T17:48:52.647Z,77.92
2022-11-28T17:51:38.371Z,78.23
2022-11-28T17:54:26.344Z,78.58
2022-11-28T17:57:11.799Z,78.31
2022-11-28T17:59:57.967Z,78.38
2022-11-28T18:02:43.472Z,78.34
2022-11-28T18:05:29.607Z,78.61
2022-11-28T18:08:21.929Z,78.64
2022-11-28T18:11:10.506Z,78.47
2022-11-28T18:13:58.459Z,78.07
2022-11-28T18:16:44.342Z,78.66
2022-11-28T18:19:30.152Z,78.62
2022-11-28T18:22:18.711Z,78.88
2022-11-28T18:25:04.355Z,78.71
2022-11-28T18:27:53.910Z,78.95
2022-11-28T18:30:46.951Z,78.71
2022-11-28T18:33:34.466Z,78.99
2022-11-28T18:36:25.704Z,78.65
2022-11-28T18:39:15.470Z,78.94
2022-11-28T18:42:01.141Z,78.71
2022-11-28T18:44:46.572Z,78.98
2022-11-28T18:47:32.020Z,79.07
2022-11-28T18:50:17.551Z,78.90
2022-11-28T18:53:02.985Z,78.74
2022-11-28T18:55:51.189Z,79.03
2022-11-28T18:58:39.599Z,79.46
2022-11-28T19:01:31.777Z,78.88
2022-11-28T19:04:17.551Z,79.26
2022-11-28T19:07:04.083Z,79.38
2022-11-28T19:09:49.499Z,79.24
2022-11-28T19:12:36.951Z,79.38
2022-11-28T19:15:22.283Z,79.18
2022-11-28T19:18:07.818Z,79.03
2022-11-28T19:20:53.076Z,78.97
2022-11-28T19:23:39.164Z,78.93
2022-11-28T19:26:26.258Z,78.85
2022-11-28T19:29:12.834Z,78.59
2022-11-28T19:36:17.915Z,78.94
2022-11-28T19:39:04.195Z,79.03
2022-11-28T19:41:53.623Z,78.45
2022-11-28T19:44:39.023Z,79.18
2022-11-28T19:47:24.441Z,79.29
2022-11-28T19:50:10.964Z,79.70
2022-11-28T19:52:57.958Z,79.14
2022-11-28T19:55:44.643Z,79.53
2022-11-28T19:58:31.580Z,79.57
2022-11-28T20:01:19.936Z,79.66
2022-11-28T20:04:09.779Z,79.44
2022-11-28T20:06:57.342Z,79.25
2022-11-28T20:09:45.153Z,79.29
2022-11-28T20:12:31.551Z,79.15
2022-11-28T20:15:18.439Z,79.21
2022-11-28T20:18:04.367Z,79.38
2022-11-28T20:20:51.133Z,79.54
2022-11-28T20:23:45.255Z,79.76
2022-11-28T20:26:34.240Z,79.72
2022-11-28T20:29:26.791Z,79.57
2022-11-28T20:32:13.119Z,79.32
2022-11-28T20:35:01.141Z,79.77
2022-11-28T20:37:47.002Z,79.68
2022-11-28T20:40:32.196Z,79.55
2022-11-28T20:43:18.747Z,79.79
2022-11-28T20:46:07.033Z,79.71
2022-11-28T20:48:52.821Z,79.27
2022-11-28T20:51:38.856Z,79.79
2022-11-28T20:54:25.973Z,79.48
2022-11-28T20:57:21.412Z,79.65
2022-11-28T21:00:08.213Z,79.42
2022-11-28T21:02:53.528Z,79.00
2022-11-28T21:05:38.898Z,78.92
2022-11-28T21:08:24.667Z,79.51
2022-11-28T21:11:36.479Z,79.41
2022-11-28T21:14:22.295Z,78.91
2022-11-28T21:17:08.632Z,79.08
2022-11-28T21:19:53.966Z,79.50
2022-11-28T21:22:39.255Z,79.31
2022-11-28T21:25:24.696Z,79.19
2022-11-28T21:28:12.810Z,79.05
2022-11-28T21:30:58.175Z,79.27
2022-11-28T21:33:47.020Z,78.94
2022-11-28T21:36:32.276Z,78.96
2022-11-28T21:39:20.064Z,78.98
2022-11-28T21:42:05.562Z,79.25
2022-11-28T21:44:50.918Z,79.24
2022-11-28T21:47:36.412Z,79.07
2022-11-28T21:50:23.063Z,79.10
2022-11-28T21:53:08.381Z,79.22
2022-11-28T21:55:55.606Z,79.39
2022-11-28T21:58:41.403Z,79.32
2022-11-28T22:01:27.003Z,79.23
2022-11-28T22:04:12.506Z,78.97
2022-11-28T22:06:57.936Z,79.19
2022-11-28T22:09:43.361Z,78.77
2022-11-28T22:12:28.690Z,78.43
2022-11-28T22:15:14.181Z,78.58
2022-11-28T22:17:59.992Z,78.87
2022-11-28T22:20:50.208Z,78.54
2022-11-28T22:23:39.642Z,78.92
2022-11-28T22:26:25.041Z,77.94
2022-11-28T22:29:10.446Z,78.12
2022-11-28T22:31:56.326Z,78.29
2022-11-28T22:34:43.223Z,78.06
2022-11-28T22:37:28.782Z,77.71
2022-11-28T22:40:15.247Z,77.91
2022-11-28T22:43:00.571Z,77.99
2022-11-28T22:45:54.500Z,78.43
2022-11-28T22:48:40.902Z,78.16
2022-11-28T22:51:27.785Z,77.86
2022-11-28T22:54:13.601Z,77.58
2022-11-28T22:56:59.901Z,78.27
2022-11-28T22:59:45.625Z,77.71
2022-11-28T23:02:32.239Z,77.49
2022-11-28T23:05:17.419Z,78.18
2022-11-28T23:08:03.163Z,78.20
2022-11-28T23:10:48.633Z,77.97
2022-11-28T23:13:35.531Z,77.50
2022-11-28T23:16:33.981Z,77.76
2022-11-28T23:19:19.858Z,77.94
2022-11-28T23:22:05.670Z,77.80
2022-11-28T23:24:51.468Z,77.58
2022-11-28T23:27:36.905Z,77.45
2022-11-28T23:30:22.338Z,77.31
2022-11-28T23:33:07.647Z,77.38
2022-11-28T23:35:53.606Z,77.89
2022-11-28T23:38:39.111Z,77.82
2022-11-28T23:41:25.574Z,77.51
2022-11-28T23:44:12.322Z,77.86
2022-11-28T23:46:57.885Z,77.72
2022-11-28T23:49:43.156Z,77.06
2022-11-28T23:52:28.474Z,77.24
2022-11-28T23:55:13.639Z,77.35
2022-11-28T23:57:58.962Z,77.26
